Terminal Aerodrome Forecast
Issued by NWS

Home | Current Version | Previous Version | Text Only | Print | Product List | Glossary On
Versions: 1 2 3 4 5 6 7 8 9 10 11 12 13 14 15 16 17 18 19 20 21 22 23 24 25 26 27 28 29 30 31 32
000
FTUS46 KLOX 310800 AAC
TAFLAX
TAF AMD
KLAX 310850Z 3109/0112 VRB03KT P6SM SCT015
     FM311000 VRB03KT P6SM BKN015
     FM312000 25010KT P6SM BKN025 BKN100
     FM010300 24010KT P6SM VCSH BKN015 OVC035
     FM010800 26012KT 5SM -RA BR OVC015=

USA.gov is the U.S. government's official web portal to all federal, state and local government web resources and services.